createdAt,value
2019-06-19T00:01:13.731Z,61.20
2019-06-19T00:03:43.196Z,60.90
2019-06-19T00:06:12.725Z,61.00
2019-06-19T00:08:42.934Z,61.10
2019-06-19T00:11:12.788Z,62.40
2019-06-19T00:13:44.219Z,62.40
2019-06-19T00:16:12.670Z,62.10
2019-06-19T00:18:43.187Z,62.00
2019-06-19T00:21:12.351Z,61.80
2019-06-19T00:23:42.721Z,61.80
2019-06-19T00:26:13.910Z,61.70
2019-06-19T00:28:42.662Z,61.60
2019-06-19T00:31:11.614Z,61.50
2019-06-19T00:33:41.215Z,61.40
2019-06-19T00:36:11.545Z,61.50
2019-06-19T00:38:41.687Z,61.70
2019-06-19T00:41:11.904Z,61.70
2019-06-19T00:43:41.145Z,61.90
2019-06-19T00:46:11.064Z,61.90
2019-06-19T00:48:41.473Z,62.00
2019-06-19T00:51:11.685Z,62.10
2019-06-19T00:53:42.133Z,62.20
2019-06-19T00:56:16.134Z,62.20
2019-06-19T00:58:45.108Z,62.30
2019-06-19T01:01:14.070Z,62.30
2019-06-19T01:03:42.978Z,62.30
2019-06-19T01:06:12.007Z,62.50
2019-06-19T01:08:41.963Z,62.60
2019-06-19T01:11:11.428Z,62.50
2019-06-19T01:13:41.501Z,62.70
2019-06-19T01:16:11.746Z,62.50
2019-06-19T01:18:41.218Z,62.60
2019-06-19T01:21:12.233Z,62.70
2019-06-19T01:23:41.035Z,64.10
2019-06-19T01:26:11.874Z,63.90
2019-06-19T01:28:41.329Z,63.70
2019-06-19T01:31:11.876Z,63.70
2019-06-19T01:33:41.525Z,63.80
2019-06-19T01:36:11.234Z,63.70
2019-06-19T01:38:41.233Z,63.60
2019-06-19T01:41:10.963Z,63.70
2019-06-19T01:43:41.013Z,63.80
2019-06-19T01:46:10.866Z,63.70
2019-06-19T01:48:41.645Z,63.80
2019-06-19T01:51:11.895Z,63.80
2019-06-19T01:54:14.954Z,63.90
2019-06-19T01:56:43.863Z,64.00
2019-06-19T01:59:12.782Z,64.00
2019-06-19T02:01:41.716Z,65.60
2019-06-19T02:04:11.785Z,65.30
2019-06-19T02:06:41.900Z,65.30
2019-06-19T02:09:11.429Z,65.00
2019-06-19T02:11:42.329Z,65.00
2019-06-19T02:14:11.321Z,64.80
2019-06-19T02:16:41.310Z,64.80
2019-06-19T02:19:11.481Z,64.80
2019-06-19T02:21:41.303Z,64.60
2019-06-19T02:24:10.727Z,65.10
2019-06-19T02:26:40.762Z,64.90
2019-06-19T02:29:11.842Z,65.10
2019-06-19T02:31:42.037Z,65.00
2019-06-19T02:34:12.671Z,65.10
2019-06-19T02:36:43.360Z,65.10
2019-06-19T02:39:12.569Z,66.40
2019-06-19T02:41:41.556Z,66.20
2019-06-19T02:44:10.572Z,67.80
2019-06-19T02:46:39.955Z,67.30
2019-06-19T02:49:08.882Z,66.90
2019-06-19T02:51:37.820Z,66.80
2019-06-19T02:54:06.990Z,66.60
2019-06-19T02:56:36.250Z,66.60
2019-06-19T02:59:05.820Z,66.50
2019-06-19T03:01:34.788Z,66.20
2019-06-19T03:04:03.861Z,66.30
2019-06-19T03:06:32.799Z,66.20
2019-06-19T03:09:01.696Z,66.30
2019-06-19T03:11:30.655Z,66.50
2019-06-19T03:13:59.546Z,66.70
2019-06-19T03:16:28.524Z,66.50
2019-06-19T03:18:57.341Z,68.00
2019-06-19T03:21:26.145Z,67.70
2019-06-19T03:23:54.987Z,67.60
2019-06-19T03:26:23.896Z,67.40
2019-06-19T03:28:52.760Z,67.30
2019-06-19T03:31:34.630Z,67.40
2019-06-19T03:33:52.445Z,67.20
2019-06-19T03:36:21.505Z,67.40
2019-06-19T03:38:50.533Z,67.40
2019-06-19T03:41:19.372Z,67.60
2019-06-19T03:43:48.261Z,67.60
2019-06-19T03:46:17.221Z,67.60
2019-06-19T03:48:46.121Z,67.80
2019-06-19T03:51:15.800Z,67.80
2019-06-19T03:53:44.636Z,67.70
2019-06-19T03:56:13.478Z,67.70
2019-06-19T03:58:42.489Z,67.60
2019-06-19T04:01:11.468Z,67.60
2019-06-19T04:03:40.426Z,68.80
2019-06-19T04:06:09.341Z,68.50
2019-06-19T04:08:38.292Z,68.40
2019-06-19T04:11:07.126Z,68.10
2019-06-19T04:13:36.036Z,68.00
2019-06-19T04:16:05.084Z,68.00
2019-06-19T04:18:33.943Z,67.90
2019-06-19T04:21:02.848Z,67.90
2019-06-19T04:23:31.871Z,68.60
2019-06-19T04:26:00.784Z,68.00
2019-06-19T04:28:48.869Z,68.10
2019-06-19T04:31:17.894Z,68.00
2019-06-19T04:33:46.805Z,68.10
2019-06-19T04:36:15.760Z,68.30
2019-06-19T04:38:44.699Z,68.30
2019-06-19T04:41:13.657Z,69.60
2019-06-19T04:43:42.685Z,69.30
2019-06-19T04:46:11.723Z,70.60
2019-06-19T04:48:40.897Z,70.20
2019-06-19T04:51:09.753Z,70.00
2019-06-19T04:53:38.829Z,69.80
2019-06-19T04:56:07.751Z,69.70
2019-06-19T04:58:36.733Z,69.70
2019-06-19T05:01:05.803Z,69.40
2019-06-19T05:03:35.145Z,69.60
2019-06-19T05:06:04.265Z,69.40
2019-06-19T05:08:46.940Z,69.60
2019-06-19T05:11:16.077Z,69.60
2019-06-19T05:13:45.059Z,69.60
2019-06-19T05:16:14.006Z,69.50
2019-06-19T05:18:42.891Z,69.60
2019-06-19T05:21:11.767Z,69.80
2019-06-19T05:23:40.762Z,70.40
2019-06-19T05:26:09.792Z,70.30
2019-06-19T05:28:38.670Z,70.40
2019-06-19T05:31:07.637Z,70.50
2019-06-19T05:33:36.701Z,70.40
2019-06-19T05:36:05.696Z,70.30
2019-06-19T05:38:34.709Z,70.40
2019-06-19T05:41:05.656Z,70.50
2019-06-19T05:43:34.646Z,70.30
2019-06-19T05:46:03.643Z,70.30
2019-06-19T05:48:32.531Z,70.30
2019-06-19T05:51:01.530Z,70.00
2019-06-19T05:53:30.445Z,70.00
2019-06-19T05:55:59.345Z,70.10
2019-06-19T05:58:28.329Z,70.20
2019-06-19T06:00:57.210Z,70.10
2019-06-19T06:03:26.101Z,70.20
2019-06-19T06:05:55.020Z,70.10
2019-06-19T06:08:24.082Z,70.40
2019-06-19T06:10:53.043Z,70.90
2019-06-19T06:13:22.115Z,70.00
2019-06-19T06:15:50.959Z,69.60
2019-06-19T06:18:20.005Z,69.40
2019-06-19T06:20:57.371Z,69.40
2019-06-19T06:23:26.211Z,70.10
2019-06-19T06:26:07.572Z,69.20
2019-06-19T06:28:37.652Z,69.30
2019-06-19T06:31:08.394Z,69.20
2019-06-19T06:33:37.386Z,69.30
2019-06-19T06:36:06.477Z,70.10
2019-06-19T06:38:35.465Z,68.20
2019-06-19T06:41:04.436Z,67.40
2019-06-19T06:43:33.340Z,67.00
2019-06-19T06:46:02.281Z,66.70
2019-06-19T06:48:31.343Z,66.50
2019-06-19T06:51:00.384Z,66.40
2019-06-19T06:53:29.269Z,66.20
2019-06-19T06:55:59.159Z,66.40
2019-06-19T06:58:28.371Z,66.90
2019-06-19T07:00:59.741Z,66.40
2019-06-19T07:03:28.950Z,66.40
2019-06-19T07:05:58.112Z,66.20
2019-06-19T07:08:27.094Z,65.80
2019-06-19T07:10:55.985Z,65.00
2019-06-19T07:13:24.891Z,64.00
2019-06-19T07:15:53.895Z,62.50
2019-06-19T07:18:22.998Z,62.90
2019-06-19T07:20:52.001Z,62.90
2019-06-19T07:23:20.855Z,63.10
2019-06-19T07:25:49.699Z,61.80
2019-06-19T07:28:18.623Z,61.30
2019-06-19T07:30:47.518Z,61.30
2019-06-19T07:33:16.501Z,60.30
2019-06-19T07:35:46.261Z,59.70
2019-06-19T07:38:15.314Z,57.20
2019-06-19T07:40:44.223Z,58.10
2019-06-19T07:43:25.040Z,57.10
2019-06-19T07:45:53.892Z,54.90
2019-06-19T07:48:22.729Z,56.80
2019-06-19T07:50:51.581Z,56.90
2019-06-19T07:53:20.615Z,55.90
2019-06-19T07:55:49.488Z,56.10
2019-06-19T07:58:18.431Z,56.20
2019-06-19T08:00:47.367Z,56.20
2019-06-19T08:03:16.251Z,55.90
2019-06-19T08:05:45.469Z,56.00
2019-06-19T08:08:14.335Z,55.80
2019-06-19T08:10:43.327Z,55.60
2019-06-19T08:13:13.621Z,56.90
2019-06-19T08:15:42.975Z,58.20
2019-06-19T08:18:11.912Z,59.60
2019-06-19T08:20:40.955Z,61.20
2019-06-19T08:23:09.875Z,62.60
2019-06-19T08:25:39.305Z,62.60
2019-06-19T08:28:08.304Z,63.30
2019-06-19T08:30:37.244Z,64.50
2019-06-19T08:33:06.225Z,64.30
2019-06-19T08:35:35.048Z,64.40
2019-06-19T08:38:03.877Z,64.70
2019-06-19T08:40:32.743Z,65.50
2019-06-19T08:43:01.664Z,66.50
2019-06-19T08:45:30.695Z,66.20
2019-06-19T08:47:59.723Z,66.50
2019-06-19T08:50:28.887Z,66.90
2019-06-19T08:52:58.282Z,68.00
2019-06-19T08:55:27.316Z,69.00
2019-06-19T08:57:56.343Z,69.80
2019-06-19T09:00:28.304Z,70.50
2019-06-19T09:02:57.438Z,70.60
2019-06-19T09:05:26.705Z,70.70
2019-06-19T09:07:55.615Z,71.10
2019-06-19T09:10:34.385Z,71.50
2019-06-19T09:13:03.459Z,71.50
2019-06-19T09:15:32.483Z,71.80
2019-06-19T09:18:01.438Z,71.70
2019-06-19T09:20:30.414Z,71.70
2019-06-19T09:22:59.433Z,72.70
2019-06-19T09:25:28.347Z,73.00
2019-06-19T09:27:57.382Z,72.70
2019-06-19T09:30:30.899Z,73.60
2019-06-19T09:32:59.889Z,74.40
2019-06-19T09:35:28.743Z,75.20
2019-06-19T09:37:57.665Z,75.70
2019-06-19T09:40:26.589Z,76.10
2019-06-19T09:42:55.562Z,75.70
2019-06-19T09:45:24.400Z,75.10
2019-06-19T09:47:53.230Z,75.20
2019-06-19T09:50:22.177Z,74.60
2019-06-19T09:52:51.060Z,77.20
2019-06-19T09:55:20.012Z,76.60
2019-06-19T09:57:48.894Z,75.50
2019-06-19T10:00:18.439Z,75.10
2019-06-19T10:02:47.361Z,75.10
2019-06-19T10:05:16.281Z,74.20
2019-06-19T10:07:45.093Z,74.20
2019-06-19T10:10:15.537Z,74.10
2019-06-19T10:12:44.534Z,72.40
2019-06-19T10:15:13.561Z,72.70
2019-06-19T10:17:42.526Z,72.80
2019-06-19T10:20:11.514Z,72.30
2019-06-19T10:22:43.299Z,71.30
2019-06-19T10:25:12.485Z,71.90
2019-06-19T10:27:41.534Z,69.80
2019-06-19T10:30:10.731Z,70.20
2019-06-19T10:32:39.721Z,69.80
2019-06-19T10:35:23.150Z,68.60
2019-06-19T10:37:39.572Z,69.30
2019-06-19T10:40:08.545Z,69.10
2019-06-19T10:42:37.484Z,69.30
2019-06-19T10:45:06.512Z,69.30
2019-06-19T10:47:35.532Z,68.50
2019-06-19T10:50:05.099Z,67.90
2019-06-19T10:52:34.105Z,69.10
2019-06-19T10:55:03.086Z,69.00
2019-06-19T10:57:31.935Z,69.30
2019-06-19T11:00:00.802Z,69.60
2019-06-19T11:02:29.728Z,70.60
2019-06-19T11:04:58.627Z,68.60
2019-06-19T11:07:27.641Z,68.00
2019-06-19T11:09:56.619Z,68.10
2019-06-19T11:12:25.520Z,67.40
2019-06-19T11:14:54.512Z,66.70
2019-06-19T11:17:23.319Z,66.90
2019-06-19T11:19:52.224Z,66.00
2019-06-19T11:22:21.185Z,65.80
2019-06-19T11:24:50.096Z,66.20
2019-06-19T11:27:19.013Z,66.10
2019-06-19T11:29:47.906Z,65.90
2019-06-19T11:32:16.912Z,66.60
2019-06-19T11:34:45.911Z,65.60
2019-06-19T11:37:14.799Z,65.70
2019-06-19T11:39:43.753Z,65.00
2019-06-19T11:42:12.699Z,64.50
2019-06-19T11:44:41.527Z,63.70
2019-06-19T11:47:10.358Z,63.50
2019-06-19T11:49:39.193Z,64.00
2019-06-19T11:52:08.199Z,63.50
2019-06-19T11:54:37.109Z,63.10
2019-06-19T11:57:05.932Z,62.80
2019-06-19T11:59:34.754Z,61.70
2019-06-19T12:02:03.570Z,61.60
2019-06-19T12:04:32.428Z,61.50
2019-06-19T12:07:01.489Z,62.00
2019-06-19T12:09:30.314Z,61.50
2019-06-19T12:11:59.249Z,61.20
2019-06-19T12:14:28.167Z,61.40
2019-06-19T12:16:57.094Z,60.20
2019-06-19T12:19:26.144Z,60.70
2019-06-19T12:21:55.173Z,60.60
2019-06-19T12:24:24.034Z,60.40
2019-06-19T12:26:53.108Z,60.40
2019-06-19T12:29:21.927Z,61.00
2019-06-19T12:31:50.831Z,59.90
2019-06-19T12:34:19.654Z,59.80
2019-06-19T12:36:48.486Z,59.30
2019-06-19T12:39:17.331Z,59.40
2019-06-19T12:41:46.416Z,59.20
2019-06-19T12:44:15.268Z,59.50
2019-06-19T12:46:44.092Z,59.20
2019-06-19T12:49:12.964Z,58.90
2019-06-19T12:51:41.942Z,58.50
2019-06-19T12:54:10.900Z,58.40
2019-06-19T12:56:40.347Z,58.80
2019-06-19T12:59:09.464Z,58.50
2019-06-19T13:01:38.330Z,58.50
2019-06-19T13:04:07.207Z,58.10
2019-06-19T13:06:46.644Z,58.10
2019-06-19T13:09:08.310Z,59.30
2019-06-19T13:11:37.273Z,58.60
2019-06-19T13:14:06.267Z,57.60
2019-06-19T13:16:35.324Z,58.20
2019-06-19T13:19:04.440Z,57.20
2019-06-19T13:21:33.350Z,57.50
2019-06-19T13:24:02.386Z,57.70
2019-06-19T13:26:31.342Z,58.20
2019-06-19T13:29:00.180Z,57.80
2019-06-19T13:31:29.141Z,57.80
2019-06-19T13:33:58.131Z,57.90
2019-06-19T13:36:27.015Z,58.10
2019-06-19T13:38:55.865Z,58.30
2019-06-19T13:41:24.667Z,58.90
2019-06-19T13:43:53.587Z,58.40
2019-06-19T13:46:22.603Z,58.10
2019-06-19T13:48:51.719Z,57.50
2019-06-19T13:51:20.653Z,57.70
2019-06-19T13:53:49.515Z,57.70
2019-06-19T13:56:21.088Z,58.90
2019-06-19T13:58:48.983Z,59.20
2019-06-19T14:01:17.908Z,58.70
2019-06-19T14:03:48.051Z,58.80
2019-06-19T14:06:17.094Z,58.70
2019-06-19T14:08:45.901Z,58.30
2019-06-19T14:11:14.745Z,58.30
2019-06-19T14:13:43.679Z,58.10
2019-06-19T14:16:12.656Z,58.30
2019-06-19T14:18:41.617Z,58.50
2019-06-19T14:21:10.666Z,58.90
2019-06-19T14:23:39.469Z,58.30
2019-06-19T14:26:08.462Z,58.50
2019-06-19T14:28:37.361Z,58.40
2019-06-19T14:31:06.258Z,58.20
2019-06-19T14:33:35.245Z,58.80
2019-06-19T14:36:04.223Z,57.60
2019-06-19T14:38:33.957Z,57.80
2019-06-19T14:41:02.944Z,58.20
2019-06-19T14:43:31.895Z,57.80
2019-06-19T14:46:00.814Z,57.60
2019-06-19T14:48:29.797Z,56.70
2019-06-19T14:50:58.771Z,56.70
2019-06-19T14:53:27.580Z,56.20
2019-06-19T14:55:56.545Z,56.20
2019-06-19T14:58:25.435Z,56.20
2019-06-19T15:00:55.339Z,56.40
2019-06-19T15:03:24.624Z,56.10
2019-06-19T15:05:53.699Z,55.90
2019-06-19T15:08:22.636Z,55.70
2019-06-19T15:10:51.741Z,54.80
2019-06-19T15:13:20.709Z,55.00
2019-06-19T15:15:49.794Z,54.70
2019-06-19T15:18:18.823Z,53.80
2019-06-19T15:20:47.744Z,53.80
2019-06-19T15:23:16.669Z,54.50
2019-06-19T15:25:45.525Z,53.40
2019-06-19T15:28:14.453Z,52.60
2019-06-19T15:30:43.337Z,52.80
2019-06-19T15:33:12.155Z,52.30
2019-06-19T15:35:41.181Z,51.40
2019-06-19T15:38:12.181Z,51.80
2019-06-19T15:40:40.799Z,50.60
2019-06-19T15:43:09.760Z,50.80
2019-06-19T15:45:38.673Z,49.80
2019-06-19T15:48:07.636Z,50.20
2019-06-19T15:50:36.581Z,49.30
2019-06-19T15:53:05.722Z,50.00
2019-06-19T15:55:34.670Z,49.70
2019-06-19T15:58:03.651Z,50.20
2019-06-19T16:00:32.780Z,49.40
2019-06-19T16:03:01.804Z,49.70
2019-06-19T16:05:30.793Z,49.50
2019-06-19T16:07:59.707Z,48.90
2019-06-19T16:10:28.682Z,48.90
2019-06-19T16:12:57.617Z,49.30
2019-06-19T16:15:26.863Z,49.50
2019-06-19T16:17:55.730Z,49.60
2019-06-19T16:20:24.843Z,49.80
2019-06-19T16:22:53.839Z,49.90
2019-06-19T16:25:22.833Z,50.70
2019-06-19T16:27:51.692Z,51.50
2019-06-19T16:30:20.806Z,52.10
2019-06-19T16:32:49.786Z,51.90
2019-06-19T16:35:18.939Z,51.70
2019-06-19T16:37:47.808Z,51.90
2019-06-19T16:40:17.634Z,52.70
2019-06-19T16:42:46.622Z,53.10
2019-06-19T16:45:15.937Z,53.60
2019-06-19T16:47:44.879Z,54.50
2019-06-19T16:50:14.128Z,55.20
2019-06-19T16:52:42.983Z,55.90
2019-06-19T16:55:13.474Z,55.10
2019-06-19T16:57:42.400Z,55.30
2019-06-19T17:00:11.929Z,55.60
2019-06-19T17:02:41.045Z,57.60
2019-06-19T17:05:10.401Z,58.70
2019-06-19T17:07:39.274Z,58.90
2019-06-19T17:10:08.785Z,59.10
2019-06-19T17:12:37.681Z,60.40
2019-06-19T17:15:07.106Z,61.10
2019-06-19T17:17:36.018Z,62.40
2019-06-19T17:20:05.448Z,63.50
2019-06-19T17:22:34.361Z,64.40
2019-06-19T17:25:03.345Z,64.50
2019-06-19T17:27:32.249Z,64.40
2019-06-19T17:30:01.074Z,64.30
2019-06-19T17:32:29.927Z,64.70
2019-06-19T17:34:58.836Z,64.60
2019-06-19T17:37:27.748Z,65.70
2019-06-19T17:39:56.595Z,66.60
2019-06-19T17:42:25.432Z,66.00
2019-06-19T17:44:54.348Z,66.50
2019-06-19T17:47:23.174Z,67.10
2019-06-19T17:49:52.167Z,66.80
2019-06-19T17:52:21.004Z,68.10
2019-06-19T17:54:49.876Z,68.00
2019-06-19T17:57:18.912Z,68.70
2019-06-19T17:59:47.770Z,69.30
2019-06-19T18:02:16.571Z,70.60
2019-06-19T18:04:45.507Z,71.40
2019-06-19T18:07:14.345Z,70.70
2019-06-19T18:09:43.166Z,71.60
2019-06-19T18:12:12.050Z,73.40
2019-06-19T18:14:40.956Z,75.00
2019-06-19T18:17:09.781Z,73.30
2019-06-19T18:19:38.769Z,73.00
2019-06-19T18:22:07.778Z,74.10
2019-06-19T18:24:36.767Z,73.30
2019-06-19T18:27:05.605Z,73.10
2019-06-19T18:29:34.601Z,74.40
2019-06-19T18:32:03.584Z,74.50
2019-06-19T18:34:32.424Z,75.10
2019-06-19T18:37:01.234Z,73.60
2019-06-19T18:39:30.151Z,73.60
2019-06-19T18:41:59.004Z,74.10
2019-06-19T18:44:27.981Z,73.70
2019-06-19T18:46:56.881Z,75.30
2019-06-19T18:49:25.724Z,74.70
2019-06-19T18:51:54.648Z,74.50
2019-06-19T18:54:23.544Z,74.50
2019-06-19T18:56:52.379Z,74.10
2019-06-19T18:59:21.194Z,74.20
2019-06-19T19:01:50.073Z,75.50
2019-06-19T19:04:18.968Z,75.90
2019-06-19T19:06:47.879Z,75.80
2019-06-19T19:09:16.700Z,75.20
2019-06-19T19:11:45.521Z,76.00
2019-06-19T19:14:14.540Z,75.40
2019-06-19T19:16:43.344Z,75.30
2019-06-19T19:19:12.277Z,75.60
2019-06-19T19:21:41.205Z,75.80
2019-06-19T19:24:10.058Z,75.90
2019-06-19T19:26:38.927Z,76.00
2019-06-19T19:29:09.308Z,75.70
2019-06-19T19:31:38.117Z,73.00
2019-06-19T19:34:07.161Z,75.80
2019-06-19T19:36:36.085Z,75.70
2019-06-19T19:39:07.657Z,75.40
2019-06-19T19:41:36.575Z,75.10
2019-06-19T19:44:05.656Z,75.00
2019-06-19T19:46:34.644Z,75.50
2019-06-19T19:49:03.797Z,74.90
2019-06-19T19:51:32.682Z,75.50
2019-06-19T19:54:01.605Z,75.10
2019-06-19T19:56:30.521Z,75.60
2019-06-19T19:58:59.391Z,75.60
2019-06-19T20:01:28.294Z,75.30
2019-06-19T20:03:57.143Z,75.60
2019-06-19T20:06:26.142Z,75.50
2019-06-19T20:08:55.018Z,75.80
2019-06-19T20:11:23.920Z,75.50
2019-06-19T20:13:52.802Z,75.70
2019-06-19T20:16:21.628Z,75.90
2019-06-19T20:18:50.476Z,76.10
2019-06-19T20:21:19.456Z,76.40
2019-06-19T20:23:48.367Z,75.90
2019-06-19T20:26:17.356Z,76.00
2019-06-19T20:28:46.187Z,75.70
2019-06-19T20:31:15.074Z,76.10
2019-06-19T20:33:44.048Z,75.40
2019-06-19T20:36:12.854Z,75.70
2019-06-19T20:38:41.755Z,76.50
2019-06-19T20:41:10.676Z,77.90
2019-06-19T20:43:39.506Z,77.50
2019-06-19T20:46:24.188Z,77.40
2019-06-19T20:48:39.301Z,77.30
2019-06-19T20:51:08.299Z,77.00
2019-06-19T20:53:37.162Z,77.00
2019-06-19T20:56:06.089Z,77.20
2019-06-19T20:58:34.923Z,77.40
2019-06-19T21:01:03.785Z,77.30
2019-06-19T21:03:32.606Z,76.90
2019-06-19T21:06:01.646Z,77.70
2019-06-19T21:08:30.500Z,77.40
2019-06-19T21:10:59.334Z,77.30
2019-06-19T21:13:28.216Z,77.40
2019-06-19T21:16:03.093Z,78.00
2019-06-19T21:18:27.761Z,77.80
2019-06-19T21:20:56.768Z,77.80
2019-06-19T21:23:25.812Z,78.20
2019-06-19T21:25:54.756Z,78.20
2019-06-19T21:28:23.702Z,78.10
2019-06-19T21:30:52.626Z,77.80
2019-06-19T21:33:21.536Z,78.90
2019-06-19T21:35:50.349Z,77.90
2019-06-19T21:38:19.254Z,78.30
2019-06-19T21:40:48.152Z,78.40
2019-06-19T21:43:16.983Z,78.40
2019-06-19T21:45:45.879Z,78.60
2019-06-19T21:48:15.029Z,78.60
2019-06-19T21:50:43.862Z,78.80
2019-06-19T21:53:12.680Z,78.70
2019-06-19T21:55:41.699Z,78.80
2019-06-19T21:58:10.537Z,79.90
2019-06-19T22:00:53.662Z,79.70
2019-06-19T22:03:22.574Z,80.90
2019-06-19T22:05:51.691Z,81.70
2019-06-19T22:08:20.773Z,80.40
2019-06-19T22:10:50.042Z,80.50
2019-06-19T22:13:18.956Z,80.30
2019-06-19T22:15:47.959Z,80.10
2019-06-19T22:18:16.772Z,80.00
2019-06-19T22:20:46.130Z,79.90
2019-06-19T22:23:14.983Z,80.10
2019-06-19T22:25:43.814Z,79.70
2019-06-19T22:28:12.643Z,79.70
2019-06-19T22:30:43.890Z,79.70
2019-06-19T22:33:12.761Z,80.10
2019-06-19T22:35:41.778Z,79.80
2019-06-19T22:38:10.720Z,80.10
2019-06-19T22:40:39.827Z,80.30
2019-06-19T22:43:08.720Z,80.60
2019-06-19T22:45:37.975Z,82.10
2019-06-19T22:48:07.137Z,81.90
2019-06-19T22:50:36.660Z,81.60
2019-06-19T22:53:05.621Z,81.60
2019-06-19T22:55:35.031Z,81.60
2019-06-19T22:58:04.032Z,81.40
2019-06-19T23:00:32.988Z,81.40
2019-06-19T23:03:20.046Z,81.30
2019-06-19T23:05:54.341Z,81.40
2019-06-19T23:08:23.332Z,81.10
2019-06-19T23:10:52.267Z,81.30
2019-06-19T23:13:21.348Z,81.30
2019-06-19T23:15:50.310Z,81.50
2019-06-19T23:18:19.262Z,81.70
2019-06-19T23:20:48.169Z,81.50
2019-06-19T23:23:17.008Z,81.50
2019-06-19T23:25:45.876Z,83.30
2019-06-19T23:28:14.846Z,83.10
2019-06-19T23:30:43.850Z,82.90
2019-06-19T23:33:12.807Z,83.00
2019-06-19T23:35:41.657Z,82.50
2019-06-19T23:38:10.625Z,82.60
2019-06-19T23:40:39.664Z,82.40
2019-06-19T23:43:08.519Z,82.30
2019-06-19T23:45:38.183Z,82.20
2019-06-19T23:48:07.083Z,81.90
2019-06-19T23:50:36.040Z,81.90
2019-06-19T23:53:05.045Z,82.20
2019-06-19T23:55:33.956Z,82.40
2019-06-19T23:58:03.032Z,82.10
